sensor_id;sensor_type;location;lat;lon;timestamp;temperature;humidity
17370;DHT22;8802;52.402;4.920;2023-04-15T00:01:19;13.20;97.30
17370;DHT22;8802;52.402;4.920;2023-04-15T00:03:46;13.10;97.30
17370;DHT22;8802;52.402;4.920;2023-04-15T00:06:13;13.10;97.10
17370;DHT22;8802;52.402;4.920;2023-04-15T00:08:40;13.10;97.30
17370;DHT22;8802;52.402;4.920;2023-04-15T00:11:08;13.00;97.20
17370;DHT22;8802;52.402;4.920;2023-04-15T00:13:36;13.00;97.20
17370;DHT22;8802;52.402;4.920;2023-04-15T00:16:05;13.00;97.40
17370;DHT22;8802;52.402;4.920;2023-04-15T00:18:32;13.00;97.70
17370;DHT22;8802;52.402;4.920;2023-04-15T00:20:58;13.00;97.70
17370;DHT22;8802;52.402;4.920;2023-04-15T00:23:26;12.90;98.00
17370;DHT22;8802;52.402;4.920;2023-04-15T00:25:53;12.90;97.90
17370;DHT22;8802;52.402;4.920;2023-04-15T00:28:20;12.90;97.70
17370;DHT22;8802;52.402;4.920;2023-04-15T00:30:48;12.90;97.90
17370;DHT22;8802;52.402;4.920;2023-04-15T00:33:15;12.80;97.70
17370;DHT22;8802;52.402;4.920;2023-04-15T00:35:42;12.80;97.90
17370;DHT22;8802;52.402;4.920;2023-04-15T00:38:09;12.80;97.90
17370;DHT22;8802;52.402;4.920;2023-04-15T00:40:37;12.80;97.70
17370;DHT22;8802;52.402;4.920;2023-04-15T00:43:04;12.80;98.00
17370;DHT22;8802;52.402;4.920;2023-04-15T00:45:31;12.80;98.10
17370;DHT22;8802;52.402;4.920;2023-04-15T00:48:00;12.70;98.10
17370;DHT22;8802;52.402;4.920;2023-04-15T00:50:27;12.70;98.00
17370;DHT22;8802;52.402;4.920;2023-04-15T00:52:54;12.70;97.90
17370;DHT22;8802;52.402;4.920;2023-04-15T00:55:21;12.70;98.00
17370;DHT22;8802;52.402;4.920;2023-04-15T00:57:47;12.70;98.00
17370;DHT22;8802;52.402;4.920;2023-04-15T01:00:14;12.70;98.20
17370;DHT22;8802;52.402;4.920;2023-04-15T01:02:41;12.70;98.00
17370;DHT22;8802;52.402;4.920;2023-04-15T01:05:10;12.70;98.40
17370;DHT22;8802;52.402;4.920;2023-04-15T01:07:37;12.70;98.80
17370;DHT22;8802;52.402;4.920;2023-04-15T01:10:05;12.70;98.30
17370;DHT22;8802;52.402;4.920;2023-04-15T01:12:32;12.60;98.10
17370;DHT22;8802;52.402;4.920;2023-04-15T01:15:01;12.60;98.10
17370;DHT22;8802;52.402;4.920;2023-04-15T01:17:28;12.60;98.30
17370;DHT22;8802;52.402;4.920;2023-04-15T01:19:55;12.50;98.30
17370;DHT22;8802;52.402;4.920;2023-04-15T01:22:25;12.50;98.40
17370;DHT22;8802;52.402;4.920;2023-04-15T01:24:56;12.50;98.20
17370;DHT22;8802;52.402;4.920;2023-04-15T01:27:27;12.40;98.30
17370;DHT22;8802;52.402;4.920;2023-04-15T01:29:55;12.40;98.40
17370;DHT22;8802;52.402;4.920;2023-04-15T01:32:23;12.40;98.20
17370;DHT22;8802;52.402;4.920;2023-04-15T01:34:50;12.30;98.20
17370;DHT22;8802;52.402;4.920;2023-04-15T01:37:17;12.30;98.40
17370;DHT22;8802;52.402;4.920;2023-04-15T01:39:44;12.20;98.50
17370;DHT22;8802;52.402;4.920;2023-04-15T01:42:10;12.20;98.80
17370;DHT22;8802;52.402;4.920;2023-04-15T01:44:39;12.20;98.80
17370;DHT22;8802;52.402;4.920;2023-04-15T01:47:06;12.10;98.60
17370;DHT22;8802;52.402;4.920;2023-04-15T01:49:33;12.10;98.60
17370;DHT22;8802;52.402;4.920;2023-04-15T01:52:00;12.10;98.60
17370;DHT22;8802;52.402;4.920;2023-04-15T01:54:27;12.00;98.60
17370;DHT22;8802;52.402;4.920;2023-04-15T01:56:54;12.00;98.60
17370;DHT22;8802;52.402;4.920;2023-04-15T01:59:21;12.00;98.70
17370;DHT22;8802;52.402;4.920;2023-04-15T02:01:49;12.00;98.70
17370;DHT22;8802;52.402;4.920;2023-04-15T02:04:16;12.00;98.80
17370;DHT22;8802;52.402;4.920;2023-04-15T02:06:43;11.90;98.80
17370;DHT22;8802;52.402;4.920;2023-04-15T02:09:10;11.90;98.80
17370;DHT22;8802;52.402;4.920;2023-04-15T02:11:37;11.90;99.00
17370;DHT22;8802;52.402;4.920;2023-04-15T02:14:04;11.90;99.30
17370;DHT22;8802;52.402;4.920;2023-04-15T02:16:32;11.80;99.10
17370;DHT22;8802;52.402;4.920;2023-04-15T02:19:00;11.80;99.50
17370;DHT22;8802;52.402;4.920;2023-04-15T02:21:28;11.80;99.00
17370;DHT22;8802;52.402;4.920;2023-04-15T02:23:55;11.80;99.10
17370;DHT22;8802;52.402;4.920;2023-04-15T02:26:22;11.80;99.30
17370;DHT22;8802;52.402;4.920;2023-04-15T02:28:50;11.70;99.20
17370;DHT22;8802;52.402;4.920;2023-04-15T02:31:17;11.80;99.10
17370;DHT22;8802;52.402;4.920;2023-04-15T02:33:43;11.70;99.20
17370;DHT22;8802;52.402;4.920;2023-04-15T02:36:12;11.70;99.30
17370;DHT22;8802;52.402;4.920;2023-04-15T02:38:39;11.70;99.20
17370;DHT22;8802;52.402;4.920;2023-04-15T02:41:08;11.70;99.10
17370;DHT22;8802;52.402;4.920;2023-04-15T02:43:35;11.70;99.10
17370;DHT22;8802;52.402;4.920;2023-04-15T02:46:02;11.60;99.20
17370;DHT22;8802;52.402;4.920;2023-04-15T02:48:29;11.60;99.10
17370;DHT22;8802;52.402;4.920;2023-04-15T02:51:12;11.60;99.20
17370;DHT22;8802;52.402;4.920;2023-04-15T02:53:39;11.60;99.00
17370;DHT22;8802;52.402;4.920;2023-04-15T02:56:06;11.60;99.20
17370;DHT22;8802;52.402;4.920;2023-04-15T02:58:34;11.60;99.30
17370;DHT22;8802;52.402;4.920;2023-04-15T03:01:01;11.60;99.40
17370;DHT22;8802;52.402;4.920;2023-04-15T03:03:28;11.50;99.80
17370;DHT22;8802;52.402;4.920;2023-04-15T03:05:55;11.60;99.50
17370;DHT22;8802;52.402;4.920;2023-04-15T03:08:23;11.50;99.60
17370;DHT22;8802;52.402;4.920;2023-04-15T03:10:50;11.50;99.60
17370;DHT22;8802;52.402;4.920;2023-04-15T03:13:18;11.50;99.60
17370;DHT22;8802;52.402;4.920;2023-04-15T03:15:46;11.50;99.90
17370;DHT22;8802;52.402;4.920;2023-04-15T03:18:13;11.50;99.70
17370;DHT22;8802;52.402;4.920;2023-04-15T03:20:40;11.50;99.70
17370;DHT22;8802;52.402;4.920;2023-04-15T03:23:07;11.50;99.70
17370;DHT22;8802;52.402;4.920;2023-04-15T03:25:35;11.40;99.80
17370;DHT22;8802;52.402;4.920;2023-04-15T03:28:02;11.50;99.80
17370;DHT22;8802;52.402;4.920;2023-04-15T03:30:29;11.40;99.80
17370;DHT22;8802;52.402;4.920;2023-04-15T03:32:56;11.40;99.90
17370;DHT22;8802;52.402;4.920;2023-04-15T03:35:23;11.40;99.90
17370;DHT22;8802;52.402;4.920;2023-04-15T03:37:50;11.40;99.90
17370;DHT22;8802;52.402;4.920;2023-04-15T03:40:17;11.40;99.90
17370;DHT22;8802;52.402;4.920;2023-04-15T03:42:45;11.40;99.90
17370;DHT22;8802;52.402;4.920;2023-04-15T03:45:12;11.40;99.90
17370;DHT22;8802;52.402;4.920;2023-04-15T03:47:39;11.40;99.90
17370;DHT22;8802;52.402;4.920;2023-04-15T03:50:07;11.40;99.90
17370;DHT22;8802;52.402;4.920;2023-04-15T03:52:33;11.40;99.90
17370;DHT22;8802;52.402;4.920;2023-04-15T03:55:00;11.40;99.90
17370;DHT22;8802;52.402;4.920;2023-04-15T03:57:27;11.40;99.90
17370;DHT22;8802;52.402;4.920;2023-04-15T03:59:55;11.40;99.90
17370;DHT22;8802;52.402;4.920;2023-04-15T04:02:22;11.40;99.90
17370;DHT22;8802;52.402;4.920;2023-04-15T04:04:49;11.40;99.90
17370;DHT22;8802;52.402;4.920;2023-04-15T04:07:17;11.40;99.90
17370;DHT22;8802;52.402;4.920;2023-04-15T04:09:44;11.40;99.90
17370;DHT22;8802;52.402;4.920;2023-04-15T04:12:11;11.40;99.90
17370;DHT22;8802;52.402;4.920;2023-04-15T04:14:37;11.40;99.90
17370;DHT22;8802;52.402;4.920;2023-04-15T04:17:06;11.40;99.90
17370;DHT22;8802;52.402;4.920;2023-04-15T04:19:33;11.40;99.90
17370;DHT22;8802;52.402;4.920;2023-04-15T04:22:00;11.30;99.90
17370;DHT22;8802;52.402;4.920;2023-04-15T04:24:26;11.40;99.90
17370;DHT22;8802;52.402;4.920;2023-04-15T04:26:53;11.40;99.90
17370;DHT22;8802;52.402;4.920;2023-04-15T04:29:21;11.40;99.90
17370;DHT22;8802;52.402;4.920;2023-04-15T04:31:48;11.40;99.90
17370;DHT22;8802;52.402;4.920;2023-04-15T04:34:16;11.40;99.90
17370;DHT22;8802;52.402;4.920;2023-04-15T04:36:43;11.40;99.90
17370;DHT22;8802;52.402;4.920;2023-04-15T04:39:10;11.40;99.90
17370;DHT22;8802;52.402;4.920;2023-04-15T04:41:37;11.40;99.90
17370;DHT22;8802;52.402;4.920;2023-04-15T04:44:04;11.40;99.90
17370;DHT22;8802;52.402;4.920;2023-04-15T04:46:31;11.40;99.90
17370;DHT22;8802;52.402;4.920;2023-04-15T04:48:58;11.40;99.90
17370;DHT22;8802;52.402;4.920;2023-04-15T04:51:26;11.40;99.90
17370;DHT22;8802;52.402;4.920;2023-04-15T04:53:53;11.40;99.90
17370;DHT22;8802;52.402;4.920;2023-04-15T04:56:21;11.40;99.90
17370;DHT22;8802;52.402;4.920;2023-04-15T04:58:48;11.40;99.90
17370;DHT22;8802;52.402;4.920;2023-04-15T05:01:16;11.40;99.90
17370;DHT22;8802;52.402;4.920;2023-04-15T05:03:43;11.40;99.90
17370;DHT22;8802;52.402;4.920;2023-04-15T05:06:10;11.40;99.90
17370;DHT22;8802;52.402;4.920;2023-04-15T05:08:38;11.40;99.90
17370;DHT22;8802;52.402;4.920;2023-04-15T05:11:05;11.30;99.90
17370;DHT22;8802;52.402;4.920;2023-04-15T05:13:33;11.30;99.90
17370;DHT22;8802;52.402;4.920;2023-04-15T05:16:03;11.30;99.90
17370;DHT22;8802;52.402;4.920;2023-04-15T05:18:30;11.30;99.90
17370;DHT22;8802;52.402;4.920;2023-04-15T05:20:57;11.30;99.90
17370;DHT22;8802;52.402;4.920;2023-04-15T05:23:26;11.30;99.90
17370;DHT22;8802;52.402;4.920;2023-04-15T05:25:54;11.30;99.90
17370;DHT22;8802;52.402;4.920;2023-04-15T05:28:21;11.30;99.90
17370;DHT22;8802;52.402;4.920;2023-04-15T05:30:48;11.30;99.90
17370;DHT22;8802;52.402;4.920;2023-04-15T05:33:15;11.20;99.90
17370;DHT22;8802;52.402;4.920;2023-04-15T05:35:42;11.20;99.90
17370;DHT22;8802;52.402;4.920;2023-04-15T05:38:09;11.20;99.90
17370;DHT22;8802;52.402;4.920;2023-04-15T05:40:36;11.20;99.90
17370;DHT22;8802;52.402;4.920;2023-04-15T05:43:04;11.20;99.90
17370;DHT22;8802;52.402;4.920;2023-04-15T05:45:31;11.20;99.90
17370;DHT22;8802;52.402;4.920;2023-04-15T05:47:58;11.20;99.90
17370;DHT22;8802;52.402;4.920;2023-04-15T05:50:25;11.20;99.90
17370;DHT22;8802;52.402;4.920;2023-04-15T05:52:51;11.20;99.90
17370;DHT22;8802;52.402;4.920;2023-04-15T05:55:18;11.30;99.90
17370;DHT22;8802;52.402;4.920;2023-04-15T05:57:45;11.30;99.90
17370;DHT22;8802;52.402;4.920;2023-04-15T06:00:14;11.30;99.90
17370;DHT22;8802;52.402;4.920;2023-04-15T06:02:41;11.30;99.90
17370;DHT22;8802;52.402;4.920;2023-04-15T06:05:08;11.40;99.90
17370;DHT22;8802;52.402;4.920;2023-04-15T06:07:36;11.40;99.90
17370;DHT22;8802;52.402;4.920;2023-04-15T06:10:04;11.40;99.90
17370;DHT22;8802;52.402;4.920;2023-04-15T06:12:31;11.40;99.90
17370;DHT22;8802;52.402;4.920;2023-04-15T06:14:58;11.50;99.90
17370;DHT22;8802;52.402;4.920;2023-04-15T06:17:26;11.50;99.90
17370;DHT22;8802;52.402;4.920;2023-04-15T06:19:53;11.50;99.90
17370;DHT22;8802;52.402;4.920;2023-04-15T06:22:21;11.60;99.90
17370;DHT22;8802;52.402;4.920;2023-04-15T06:24:48;11.60;99.90
17370;DHT22;8802;52.402;4.920;2023-04-15T06:27:16;11.60;99.90
17370;DHT22;8802;52.402;4.920;2023-04-15T06:29:43;11.70;99.90
17370;DHT22;8802;52.402;4.920;2023-04-15T06:32:10;11.80;99.90
17370;DHT22;8802;52.402;4.920;2023-04-15T06:34:38;11.90;99.90
17370;DHT22;8802;52.402;4.920;2023-04-15T06:37:05;12.00;99.90
17370;DHT22;8802;52.402;4.920;2023-04-15T06:39:34;12.10;99.90
17370;DHT22;8802;52.402;4.920;2023-04-15T06:42:02;12.20;99.90
17370;DHT22;8802;52.402;4.920;2023-04-15T06:44:29;12.30;99.90
17370;DHT22;8802;52.402;4.920;2023-04-15T06:46:56;12.50;99.90
17370;DHT22;8802;52.402;4.920;2023-04-15T06:49:23;12.60;99.90
17370;DHT22;8802;52.402;4.920;2023-04-15T06:51:51;12.80;99.90
17370;DHT22;8802;52.402;4.920;2023-04-15T06:54:18;12.90;99.90
17370;DHT22;8802;52.402;4.920;2023-04-15T06:56:45;13.10;99.90
17370;DHT22;8802;52.402;4.920;2023-04-15T06:59:13;13.20;99.90
17370;DHT22;8802;52.402;4.920;2023-04-15T07:01:40;13.30;99.90
17370;DHT22;8802;52.402;4.920;2023-04-15T07:04:07;13.50;99.90
17370;DHT22;8802;52.402;4.920;2023-04-15T07:06:33;13.60;99.90
17370;DHT22;8802;52.402;4.920;2023-04-15T07:09:02;13.70;99.90
17370;DHT22;8802;52.402;4.920;2023-04-15T07:11:30;13.90;99.90
17370;DHT22;8802;52.402;4.920;2023-04-15T07:13:57;14.00;99.90
17370;DHT22;8802;52.402;4.920;2023-04-15T07:16:24;14.10;99.90
17370;DHT22;8802;52.402;4.920;2023-04-15T07:18:51;14.20;99.90
17370;DHT22;8802;52.402;4.920;2023-04-15T07:21:18;14.40;99.90
17370;DHT22;8802;52.402;4.920;2023-04-15T07:23:45;14.50;99.70
17370;DHT22;8802;52.402;4.920;2023-04-15T07:26:13;14.70;99.30
17370;DHT22;8802;52.402;4.920;2023-04-15T07:28:40;14.80;99.10
17370;DHT22;8802;52.402;4.920;2023-04-15T07:31:07;14.90;98.90
17370;DHT22;8802;52.402;4.920;2023-04-15T07:33:34;15.10;99.00
17370;DHT22;8802;52.402;4.920;2023-04-15T07:36:01;15.30;98.90
17370;DHT22;8802;52.402;4.920;2023-04-15T07:38:28;15.40;98.50
17370;DHT22;8802;52.402;4.920;2023-04-15T07:40:55;15.60;98.30
17370;DHT22;8802;52.402;4.920;2023-04-15T07:43:24;15.70;97.70
17370;DHT22;8802;52.402;4.920;2023-04-15T07:45:51;15.80;97.60
17370;DHT22;8802;52.402;4.920;2023-04-15T07:48:17;15.90;97.40
17370;DHT22;8802;52.402;4.920;2023-04-15T07:50:45;15.90;96.80
17370;DHT22;8802;52.402;4.920;2023-04-15T07:53:12;16.00;96.60
17370;DHT22;8802;52.402;4.920;2023-04-15T07:55:39;16.10;96.60
17370;DHT22;8802;52.402;4.920;2023-04-15T07:58:06;16.10;96.70
17370;DHT22;8802;52.402;4.920;2023-04-15T08:00:34;16.20;96.50
17370;DHT22;8802;52.402;4.920;2023-04-15T08:03:01;16.30;96.50
17370;DHT22;8802;52.402;4.920;2023-04-15T08:05:28;16.30;96.20
17370;DHT22;8802;52.402;4.920;2023-04-15T08:07:55;16.40;95.70
17370;DHT22;8802;52.402;4.920;2023-04-15T08:10:23;16.40;96.10
17370;DHT22;8802;52.402;4.920;2023-04-15T08:12:50;16.50;95.70
17370;DHT22;8802;52.402;4.920;2023-04-15T08:15:19;16.50;95.30
17370;DHT22;8802;52.402;4.920;2023-04-15T08:17:47;16.60;95.50
17370;DHT22;8802;52.402;4.920;2023-04-15T08:20:14;16.60;95.30
17370;DHT22;8802;52.402;4.920;2023-04-15T08:22:41;16.70;95.30
17370;DHT22;8802;52.402;4.920;2023-04-15T08:25:08;16.70;95.30
17370;DHT22;8802;52.402;4.920;2023-04-15T08:27:35;16.80;95.30
17370;DHT22;8802;52.402;4.920;2023-04-15T08:30:03;16.90;94.40
17370;DHT22;8802;52.402;4.920;2023-04-15T08:32:30;16.90;94.90
17370;DHT22;8802;52.402;4.920;2023-04-15T08:34:58;16.90;94.60
17370;DHT22;8802;52.402;4.920;2023-04-15T08:37:26;16.90;95.10
17370;DHT22;8802;52.402;4.920;2023-04-15T08:39:53;16.90;94.80
17370;DHT22;8802;52.402;4.920;2023-04-15T08:42:25;17.00;94.30
17370;DHT22;8802;52.402;4.920;2023-04-15T08:44:54;17.00;94.50
17370;DHT22;8802;52.402;4.920;2023-04-15T08:47:23;17.00;94.50
17370;DHT22;8802;52.402;4.920;2023-04-15T08:49:54;17.00;93.70
17370;DHT22;8802;52.402;4.920;2023-04-15T08:52:25;17.00;94.80
17370;DHT22;8802;52.402;4.920;2023-04-15T08:54:56;17.00;94.20
17370;DHT22;8802;52.402;4.920;2023-04-15T08:57:25;17.10;94.10
17370;DHT22;8802;52.402;4.920;2023-04-15T08:59:52;17.10;93.90
17370;DHT22;8802;52.402;4.920;2023-04-15T09:02:19;17.10;94.10
17370;DHT22;8802;52.402;4.920;2023-04-15T09:04:46;17.10;93.80
17370;DHT22;8802;52.402;4.920;2023-04-15T09:07:13;17.10;93.80
17370;DHT22;8802;52.402;4.920;2023-04-15T09:09:42;17.10;94.10
17370;DHT22;8802;52.402;4.920;2023-04-15T09:12:10;17.10;94.00
17370;DHT22;8802;52.402;4.920;2023-04-15T09:14:38;17.20;94.40
17370;DHT22;8802;52.402;4.920;2023-04-15T09:17:09;17.20;93.60
17370;DHT22;8802;52.402;4.920;2023-04-15T09:19:36;17.20;93.60
17370;DHT22;8802;52.402;4.920;2023-04-15T09:22:03;17.20;94.00
17370;DHT22;8802;52.402;4.920;2023-04-15T09:24:35;17.20;93.40
17370;DHT22;8802;52.402;4.920;2023-04-15T09:27:05;17.20;93.70
17370;DHT22;8802;52.402;4.920;2023-04-15T09:29:32;17.30;93.60
17370;DHT22;8802;52.402;4.920;2023-04-15T09:32:09;17.30;93.90
17370;DHT22;8802;52.402;4.920;2023-04-15T09:34:36;17.30;93.60
17370;DHT22;8802;52.402;4.920;2023-04-15T09:37:03;17.40;93.80
17370;DHT22;8802;52.402;4.920;2023-04-15T09:39:44;17.40;93.60
17370;DHT22;8802;52.402;4.920;2023-04-15T09:42:14;17.50;93.20
17370;DHT22;8802;52.402;4.920;2023-04-15T09:44:42;17.50;93.80
17370;DHT22;8802;52.402;4.920;2023-04-15T09:47:09;17.50;93.20
17370;DHT22;8802;52.402;4.920;2023-04-15T09:49:54;17.50;92.90
17370;DHT22;8802;52.402;4.920;2023-04-15T09:52:22;17.50;93.10
17370;DHT22;8802;52.402;4.920;2023-04-15T09:54:52;17.50;92.60
17370;DHT22;8802;52.402;4.920;2023-04-15T09:57:21;17.50;91.70
17370;DHT22;8802;52.402;4.920;2023-04-15T09:59:49;17.40;92.10
17370;DHT22;8802;52.402;4.920;2023-04-15T10:02:17;17.40;92.60
17370;DHT22;8802;52.402;4.920;2023-04-15T10:04:47;17.40;92.50
17370;DHT22;8802;52.402;4.920;2023-04-15T10:07:14;17.40;92.40
17370;DHT22;8802;52.402;4.920;2023-04-15T10:09:45;17.50;92.60
17370;DHT22;8802;52.402;4.920;2023-04-15T10:12:15;17.50;92.80
17370;DHT22;8802;52.402;4.920;2023-04-15T10:14:45;17.50;92.70
17370;DHT22;8802;52.402;4.920;2023-04-15T10:17:16;17.60;92.50
17370;DHT22;8802;52.402;4.920;2023-04-15T10:19:44;17.70;92.00
17370;DHT22;8802;52.402;4.920;2023-04-15T10:22:12;17.70;92.60
17370;DHT22;8802;52.402;4.920;2023-04-15T10:24:40;17.70;91.90
17370;DHT22;8802;52.402;4.920;2023-04-15T10:27:08;17.80;92.20
17370;DHT22;8802;52.402;4.920;2023-04-15T10:29:35;17.80;92.20
17370;DHT22;8802;52.402;4.920;2023-04-15T10:32:04;17.80;92.00
17370;DHT22;8802;52.402;4.920;2023-04-15T10:34:32;17.80;92.20
17370;DHT22;8802;52.402;4.920;2023-04-15T10:37:01;17.70;91.90
17370;DHT22;8802;52.402;4.920;2023-04-15T10:39:42;17.70;91.90
17370;DHT22;8802;52.402;4.920;2023-04-15T10:42:10;17.80;91.60
17370;DHT22;8802;52.402;4.920;2023-04-15T10:44:38;17.80;91.60
17370;DHT22;8802;52.402;4.920;2023-04-15T10:47:13;17.80;91.70
17370;DHT22;8802;52.402;4.920;2023-04-15T10:49:44;17.80;91.40
17370;DHT22;8802;52.402;4.920;2023-04-15T10:52:12;17.90;91.70
17370;DHT22;8802;52.402;4.920;2023-04-15T10:54:40;17.90;91.70
17370;DHT22;8802;52.402;4.920;2023-04-15T10:57:08;18.00;91.50
17370;DHT22;8802;52.402;4.920;2023-04-15T11:00:09;18.00;91.80
17370;DHT22;8802;52.402;4.920;2023-04-15T11:02:44;18.00;91.50
17370;DHT22;8802;52.402;4.920;2023-04-15T11:05:12;18.10;91.60
17370;DHT22;8802;52.402;4.920;2023-04-15T11:07:47;18.10;91.40
17370;DHT22;8802;52.402;4.920;2023-04-15T11:13:27;18.10;91.10
17370;DHT22;8802;52.402;4.920;2023-04-15T11:16:00;18.10;91.90
17370;DHT22;8802;52.402;4.920;2023-04-15T11:18:30;18.10;91.50
17370;DHT22;8802;52.402;4.920;2023-04-15T11:20:59;18.10;91.20
17370;DHT22;8802;52.402;4.920;2023-04-15T11:23:29;18.10;91.30
17370;DHT22;8802;52.402;4.920;2023-04-15T11:25:56;18.10;91.10
17370;DHT22;8802;52.402;4.920;2023-04-15T11:28:25;18.10;91.20
17370;DHT22;8802;52.402;4.920;2023-04-15T11:30:53;18.20;91.40
17370;DHT22;8802;52.402;4.920;2023-04-15T11:33:21;18.20;91.20
17370;DHT22;8802;52.402;4.920;2023-04-15T11:35:52;18.20;91.40
17370;DHT22;8802;52.402;4.920;2023-04-15T11:38:19;18.20;91.00
17370;DHT22;8802;52.402;4.920;2023-04-15T11:40:47;18.20;90.80
17370;DHT22;8802;52.402;4.920;2023-04-15T11:43:16;18.30;90.80
17370;DHT22;8802;52.402;4.920;2023-04-15T11:45:51;18.30;90.60
17370;DHT22;8802;52.402;4.920;2023-04-15T11:48:19;18.30;90.50
17370;DHT22;8802;52.402;4.920;2023-04-15T11:50:53;18.20;90.40
17370;DHT22;8802;52.402;4.920;2023-04-15T11:53:21;18.10;89.80
17370;DHT22;8802;52.402;4.920;2023-04-15T11:55:49;18.10;89.60
17370;DHT22;8802;52.402;4.920;2023-04-15T11:58:18;18.00;90.70
17370;DHT22;8802;52.402;4.920;2023-04-15T12:00:46;18.00;90.60
17370;DHT22;8802;52.402;4.920;2023-04-15T12:03:17;17.90;90.20
17370;DHT22;8802;52.402;4.920;2023-04-15T12:06:11;17.90;90.50
17370;DHT22;8802;52.402;4.920;2023-04-15T12:11:44;18.00;90.30
17370;DHT22;8802;52.402;4.920;2023-04-15T12:14:26;18.00;90.80
17370;DHT22;8802;52.402;4.920;2023-04-15T12:16:56;18.00;90.60
17370;DHT22;8802;52.402;4.920;2023-04-15T12:19:26;18.10;90.80
17370;DHT22;8802;52.402;4.920;2023-04-15T12:21:57;18.10;90.60
17370;DHT22;8802;52.402;4.920;2023-04-15T12:24:24;18.20;90.30
17370;DHT22;8802;52.402;4.920;2023-04-15T12:26:52;18.20;90.80
17370;DHT22;8802;52.402;4.920;2023-04-15T12:29:26;18.20;90.60
17370;DHT22;8802;52.402;4.920;2023-04-15T12:31:55;18.20;90.00
17370;DHT22;8802;52.402;4.920;2023-04-15T12:34:26;18.30;90.40
17370;DHT22;8802;52.402;4.920;2023-04-15T12:36:56;18.30;89.50
17370;DHT22;8802;52.402;4.920;2023-04-15T12:39:24;18.30;90.20
17370;DHT22;8802;52.402;4.920;2023-04-15T12:41:51;18.30;90.00
17370;DHT22;8802;52.402;4.920;2023-04-15T12:44:18;18.30;89.20
17370;DHT22;8802;52.402;4.920;2023-04-15T12:46:45;18.40;90.30
17370;DHT22;8802;52.402;4.920;2023-04-15T12:49:12;18.40;90.20
17370;DHT22;8802;52.402;4.920;2023-04-15T12:51:40;18.30;89.80
17370;DHT22;8802;52.402;4.920;2023-04-15T12:54:08;18.30;89.30
17370;DHT22;8802;52.402;4.920;2023-04-15T12:56:35;18.20;89.10
17370;DHT22;8802;52.402;4.920;2023-04-15T12:59:02;18.20;90.00
17370;DHT22;8802;52.402;4.920;2023-04-15T13:01:29;18.10;90.80
17370;DHT22;8802;52.402;4.920;2023-04-15T13:03:56;18.10;90.20
17370;DHT22;8802;52.402;4.920;2023-04-15T13:06:23;18.10;90.20
17370;DHT22;8802;52.402;4.920;2023-04-15T13:08:50;18.00;90.20
17370;DHT22;8802;52.402;4.920;2023-04-15T13:11:21;17.90;90.20
17370;DHT22;8802;52.402;4.920;2023-04-15T13:13:48;17.90;90.40
17370;DHT22;8802;52.402;4.920;2023-04-15T13:16:15;17.80;90.30
17370;DHT22;8802;52.402;4.920;2023-04-15T13:18:42;17.80;90.10
17370;DHT22;8802;52.402;4.920;2023-04-15T13:21:10;17.70;90.20
17370;DHT22;8802;52.402;4.920;2023-04-15T13:23:37;17.70;90.40
17370;DHT22;8802;52.402;4.920;2023-04-15T13:26:04;17.60;90.20
17370;DHT22;8802;52.402;4.920;2023-04-15T13:28:33;17.60;90.50
17370;DHT22;8802;52.402;4.920;2023-04-15T13:30:59;17.40;90.80
17370;DHT22;8802;52.402;4.920;2023-04-15T13:33:27;17.40;90.80
17370;DHT22;8802;52.402;4.920;2023-04-15T13:35:53;17.40;90.80
17370;DHT22;8802;52.402;4.920;2023-04-15T13:38:20;17.30;90.50
17370;DHT22;8802;52.402;4.920;2023-04-15T13:40:47;17.30;90.80
17370;DHT22;8802;52.402;4.920;2023-04-15T13:43:14;17.20;91.10
17370;DHT22;8802;52.402;4.920;2023-04-15T13:45:43;17.10;91.20
17370;DHT22;8802;52.402;4.920;2023-04-15T13:48:10;17.10;91.20
17370;DHT22;8802;52.402;4.920;2023-04-15T13:50:37;17.00;91.00
17370;DHT22;8802;52.402;4.920;2023-04-15T13:53:04;17.00;91.00
17370;DHT22;8802;52.402;4.920;2023-04-15T13:55:31;16.90;91.00
17370;DHT22;8802;52.402;4.920;2023-04-15T13:57:59;16.80;91.00
17370;DHT22;8802;52.402;4.920;2023-04-15T14:00:26;16.80;91.20
17370;DHT22;8802;52.402;4.920;2023-04-15T14:02:54;16.70;91.60
17370;DHT22;8802;52.402;4.920;2023-04-15T14:05:21;16.60;91.70
17370;DHT22;8802;52.402;4.920;2023-04-15T14:07:48;16.60;91.60
17370;DHT22;8802;52.402;4.920;2023-04-15T14:10:15;16.50;91.60
17370;DHT22;8802;52.402;4.920;2023-04-15T14:12:42;16.40;91.90
17370;DHT22;8802;52.402;4.920;2023-04-15T14:15:09;16.40;91.60
17370;DHT22;8802;52.402;4.920;2023-04-15T14:17:36;16.30;91.80
17370;DHT22;8802;52.402;4.920;2023-04-15T14:20:06;16.30;91.80
17370;DHT22;8802;52.402;4.920;2023-04-15T14:22:33;16.20;92.00
17370;DHT22;8802;52.402;4.920;2023-04-15T14:25:00;16.20;92.00
17370;DHT22;8802;52.402;4.920;2023-04-15T14:27:27;16.10;91.70
17370;DHT22;8802;52.402;4.920;2023-04-15T14:29:54;16.10;91.70
17370;DHT22;8802;52.402;4.920;2023-04-15T14:32:23;16.10;91.90
17370;DHT22;8802;52.402;4.920;2023-04-15T14:34:50;16.10;92.10
17370;DHT22;8802;52.402;4.920;2023-04-15T14:37:18;16.00;91.60
17370;DHT22;8802;52.402;4.920;2023-04-15T14:39:45;16.00;91.60
17370;DHT22;8802;52.402;4.920;2023-04-15T14:42:12;15.90;91.80
17370;DHT22;8802;52.402;4.920;2023-04-15T14:44:39;15.80;91.80
17370;DHT22;8802;52.402;4.920;2023-04-15T14:47:06;15.80;91.80
17370;DHT22;8802;52.402;4.920;2023-04-15T14:49:33;15.70;91.70
17370;DHT22;8802;52.402;4.920;2023-04-15T14:52:00;15.60;92.20
17370;DHT22;8802;52.402;4.920;2023-04-15T14:54:28;15.60;91.70
17370;DHT22;8802;52.402;4.920;2023-04-15T14:56:55;15.50;92.30
17370;DHT22;8802;52.402;4.920;2023-04-15T14:59:21;15.50;92.40
17370;DHT22;8802;52.402;4.920;2023-04-15T15:01:48;15.40;93.00
17370;DHT22;8802;52.402;4.920;2023-04-15T15:04:15;15.40;92.30
17370;DHT22;8802;52.402;4.920;2023-04-15T15:06:42;15.40;92.50
17370;DHT22;8802;52.402;4.920;2023-04-15T15:09:09;15.40;92.70
17370;DHT22;8802;52.402;4.920;2023-04-15T15:11:37;15.40;92.70
17370;DHT22;8802;52.402;4.920;2023-04-15T15:14:04;15.40;92.80
17370;DHT22;8802;52.402;4.920;2023-04-15T15:16:31;15.40;92.80
17370;DHT22;8802;52.402;4.920;2023-04-15T15:18:58;15.40;93.00
17370;DHT22;8802;52.402;4.920;2023-04-15T15:21:25;15.40;92.80
17370;DHT22;8802;52.402;4.920;2023-04-15T15:23:52;15.40;93.10
17370;DHT22;8802;52.402;4.920;2023-04-15T15:26:19;15.50;93.20
17370;DHT22;8802;52.402;4.920;2023-04-15T15:28:47;15.40;93.20
17370;DHT22;8802;52.402;4.920;2023-04-15T15:31:15;15.40;93.20
17370;DHT22;8802;52.402;4.920;2023-04-15T15:33:42;15.40;92.90
17370;DHT22;8802;52.402;4.920;2023-04-15T15:36:09;15.40;92.80
17370;DHT22;8802;52.402;4.920;2023-04-15T15:38:36;15.40;92.80
17370;DHT22;8802;52.402;4.920;2023-04-15T15:41:03;15.30;93.00
17370;DHT22;8802;52.402;4.920;2023-04-15T15:43:30;15.30;92.90
17370;DHT22;8802;52.402;4.920;2023-04-15T15:45:58;15.20;93.20
17370;DHT22;8802;52.402;4.920;2023-04-15T15:48:25;15.10;93.10
17370;DHT22;8802;52.402;4.920;2023-04-15T15:50:52;15.10;92.80
17370;DHT22;8802;52.402;4.920;2023-04-15T15:53:19;15.10;92.90
17370;DHT22;8802;52.402;4.920;2023-04-15T15:55:48;15.00;92.90